Time;durP1;ratioP1;P1;durP2;ratioP2;P2;SDS_P1;SDS_P2;PMS_P1;PMS_P2;Temp;Humidity;BMP_temperature;BMP_pressure;BME280_temperature;BME280_humidity;BME280_pressure;Samples;Min_cycle;Max_cycle;Signal;HPM_P1;HPM_P2
2023/11/16 00:01:51;;;;;;;10.03;2.47;;;;;;;-144.99;100.00;67352.69;5067325;28;20218;-89
2023/11/16 00:04:17;;;;;;;4.50;2.77;;;;;;;-144.99;100.00;67352.69;5075263;28;20636;-88
2023/11/16 00:06:43;;;;;;;6.80;3.77;;;;;;;-144.99;100.00;67352.69;5092884;28;20177;-89
2023/11/16 00:09:10;;;;;;;11.27;3.63;;;;;;;-144.99;100.00;67352.69;5074999;28;20178;-88
2023/11/16 00:11:40;;;;;;;4.13;2.23;;;;;;;-144.99;100.00;67352.69;5066664;28;20680;-88
2023/11/16 00:14:05;;;;;;;6.17;1.57;;;;;;;-144.99;100.00;67352.69;5093066;28;20260;-88
2023/11/16 00:16:31;;;;;;;4.33;2.93;;;;;;;-144.99;100.00;67352.69;5092844;28;20276;-88
2023/11/16 00:18:57;;;;;;;4.60;3.23;;;;;;;-144.99;100.00;67352.69;5074884;28;20201;-89
2023/11/16 00:21:23;;;;;;;1.63;1.53;;;;;;;-144.99;100.00;67352.69;5074697;28;20314;-88
2023/11/16 00:23:48;;;;;;;7.87;2.20;;;;;;;-144.99;100.00;67352.69;5065490;28;20185;-88
2023/11/16 00:26:14;;;;;;;2.80;2.17;;;;;;;-144.99;100.00;67352.69;5074461;28;20712;-88
2023/11/16 00:28:40;;;;;;;1.80;1.70;;;;;;;-144.99;100.00;67352.69;5074827;28;20644;-89
2023/11/16 00:31:05;;;;;;;2.00;1.60;;;;;;;-144.99;100.00;67352.69;5074660;28;20212;-89
2023/11/16 00:33:31;;;;;;;5.27;2.03;;;;;;;-144.99;100.00;67352.69;5092670;28;20178;-88
2023/11/16 00:35:58;;;;;;;6.47;2.37;;;;;;;-144.99;100.00;67352.69;5074147;28;20602;-87
2023/11/16 00:38:27;;;;;;;5.87;2.43;;;;;;;-144.99;100.00;67352.69;5074453;28;20209;-89
2023/11/16 00:40:55;;;;;;;2.93;1.43;;;;;;;-144.99;100.00;67352.69;5074350;28;20597;-88
2023/11/16 00:43:20;;;;;;;4.17;2.07;;;;;;;-144.99;100.00;67352.69;5074450;28;20177;-86
2023/11/16 00:45:45;;;;;;;5.90;1.80;;;;;;;-144.99;100.00;67352.69;5092428;28;20235;-88
2023/11/16 00:48:11;;;;;;;3.40;1.00;;;;;;;-144.99;100.00;67352.69;5074428;28;20200;-87
2023/11/16 00:50:36;;;;;;;3.83;1.77;;;;;;;-144.99;100.00;67352.69;5074406;28;20198;-88
2023/11/16 00:53:02;;;;;;;0.93;0.90;;;;;;;-144.99;100.00;67352.69;5074055;28;20189;-88
2023/11/16 00:55:27;;;;;;;1.90;1.70;;;;;;;-144.99;100.00;67352.69;5073929;28;20190;-87
2023/11/16 00:57:52;;;;;;;7.43;1.77;;;;;;;-144.99;100.00;67352.69;5074646;28;20186;-89
2023/11/16 01:00:18;;;;;;;4.40;2.47;;;;;;;-144.99;100.00;67352.69;5086577;28;20614;-89
2023/11/16 01:02:43;;;;;;;2.53;1.53;;;;;;;-144.99;100.00;67352.69;5073100;28;20200;-87
2023/11/16 01:05:10;;;;;;;7.53;3.33;;;;;;;-144.99;100.00;67352.69;5089598;28;20185;-87
2023/11/16 01:07:38;;;;;;;5.73;2.27;;;;;;;-144.99;100.00;67352.69;5091850;28;20199;-88
2023/11/16 01:10:04;;;;;;;2.60;1.67;;;;;;;-144.99;100.00;67352.69;5057575;28;20735;-89
2023/11/16 01:12:30;;;;;;;1.13;1.07;;;;;;;-144.99;100.00;67352.69;5092058;28;20223;-88
2023/11/16 01:14:59;;;;;;;3.93;1.07;;;;;;;-144.99;100.00;67352.69;5073942;28;20619;-86
2023/11/16 01:17:31;;;;;;;0.73;0.70;;;;;;;-144.99;100.00;67352.69;5069956;28;20242;-89
2023/11/16 01:19:59;;;;;;;0.90;0.87;;;;;;;-144.99;100.00;67352.69;5073741;28;20740;-88
2023/11/16 01:22:28;;;;;;;1.40;0.90;;;;;;;-144.99;100.00;67352.69;5074005;28;20239;-88
2023/11/16 01:24:53;;;;;;;2.67;1.50;;;;;;;-144.99;100.00;67352.69;5073810;28;20185;-88
2023/11/16 01:27:25;;;;;;;8.23;1.77;;;;;;;-144.99;100.00;67352.69;5083423;28;20184;-88
2023/11/16 01:29:51;;;;;;;4.67;2.70;;;;;;;-144.99;100.00;67352.69;5092105;28;20197;-88
2023/11/16 01:32:17;;;;;;;1.77;1.67;;;;;;;-144.99;100.00;67352.69;5073370;28;20254;-89
2023/11/16 01:34:44;;;;;;;3.70;1.70;;;;;;;-144.99;100.00;67352.69;5092596;28;20193;-87
2023/11/16 01:37:10;;;;;;;4.33;2.13;;;;;;;-144.99;100.00;67352.69;5077773;28;20239;-89
2023/11/16 01:39:35;;;;;;;3.77;2.17;;;;;;;-144.99;100.00;67352.69;5095796;28;20201;-87
2023/11/16 01:42:01;;;;;;;4.83;1.90;;;;;;;-144.99;100.00;67352.69;5077709;28;20293;-88
2023/11/16 01:44:26;;;;;;;11.33;2.83;;;;;;;-144.99;100.00;67352.69;5077938;28;20201;-87
2023/11/16 01:46:51;;;;;;;4.43;1.77;;;;;;;-144.99;100.00;67352.69;5095664;28;20184;-88
2023/11/16 01:49:17;;;;;;;3.33;1.53;;;;;;;-144.99;100.00;67352.69;5077753;28;20178;-88
2023/11/16 01:51:45;;;;;;;11.10;2.73;;;;;;;-144.99;100.00;67352.69;5095896;28;20241;-88
2023/11/16 01:54:13;;;;;;;2.10;1.67;;;;;;;-144.99;100.00;67352.69;5095818;28;20177;-88
2023/11/16 01:56:39;;;;;;;4.00;2.70;;;;;;;-144.99;100.00;67352.69;5095636;28;20174;-87
2023/11/16 01:59:07;;;;;;;4.73;2.13;;;;;;;-144.99;100.00;67352.69;5095561;28;20226;-88
2023/11/16 02:01:34;;;;;;;4.73;2.73;;;;;;;-144.99;100.00;67352.69;5124418;22;20225;-86
2023/11/16 02:04:04;;;;;;;6.07;2.27;;;;;;;-144.99;100.00;67352.69;5090328;28;20185;-86
2023/11/16 02:06:29;;;;;;;2.13;1.80;;;;;;;-144.99;100.00;67352.69;5081634;28;20623;-85
2023/11/16 02:08:55;;;;;;;3.77;1.97;;;;;;;-144.99;100.00;67352.69;5095820;28;20177;-85
2023/11/16 02:11:21;;;;;;;10.13;2.80;;;;;;;-144.99;100.00;67352.69;5101484;28;20253;-84
2023/11/16 02:13:48;;;;;;;1.47;1.37;;;;;;;-144.99;100.00;67352.69;5116315;28;20185;-86
2023/11/16 02:16:16;;;;;;;2.37;2.17;;;;;;;-144.99;100.00;67352.69;5106684;28;20367;-86
2023/11/16 02:18:42;;;;;;;13.00;2.37;;;;;;;-144.99;100.00;67352.69;5091991;28;20186;-87
2023/11/16 02:21:08;;;;;;;3.57;2.80;;;;;;;-144.99;100.00;67352.69;5101626;28;20202;-86
2023/11/16 02:23:34;;;;;;;4.90;2.87;;;;;;;-144.99;100.00;67352.69;5087561;28;20183;-89
2023/11/16 02:26:00;;;;;;;3.43;1.57;;;;;;;-144.99;100.00;67352.69;5106671;28;20246;-87
2023/11/16 02:28:27;;;;;;;5.57;2.60;;;;;;;-144.99;100.00;67352.69;5082896;28;20181;-87
2023/11/16 02:30:52;;;;;;;5.67;3.13;;;;;;;-144.99;100.00;67352.69;5090908;28;20194;-90
2023/11/16 02:33:21;;;;;;;1.70;1.47;;;;;;;-144.99;100.00;67352.69;5091538;28;20188;-88
2023/11/16 02:35:47;;;;;;;2.20;1.77;;;;;;;-144.99;100.00;67352.69;5091832;28;20178;-89
2023/11/16 02:38:16;;;;;;;33.57;2.60;;;;;;;-144.99;100.00;67352.69;5095325;28;20210;-90
2023/11/16 02:40:42;;;;;;;25.27;1.60;;;;;;;-144.99;100.00;67352.69;5113012;28;20224;-88
2023/11/16 02:43:08;;;;;;;7.33;1.70;;;;;;;-144.99;100.00;67352.69;5108675;28;20190;-88
2023/11/16 02:45:34;;;;;;;4.30;3.90;;;;;;;-144.99;100.00;67352.69;5090171;28;20177;-88
2023/11/16 02:48:00;;;;;;;1.97;1.87;;;;;;;-144.99;100.00;67352.69;5106485;28;20239;-90
2023/11/16 02:50:26;;;;;;;13.43;3.17;;;;;;;-144.99;100.00;67352.69;5108413;28;20245;-88
2023/11/16 02:52:52;;;;;;;2.07;1.83;;;;;;;-144.99;100.00;67352.69;5108367;28;20199;-89
2023/11/16 02:55:20;;;;;;;5.53;3.53;;;;;;;-144.99;100.00;67352.69;5090211;28;20208;-88
2023/11/16 02:57:46;;;;;;;3.37;2.40;;;;;;;-144.99;100.00;67352.69;5100192;28;20185;-85
2023/11/16 03:00:12;;;;;;;6.30;2.17;;;;;;;-144.99;100.00;67352.69;5117724;28;20197;-88
2023/11/16 03:02:42;;;;;;;1.67;1.20;;;;;;;-144.99;100.00;67352.69;5100754;28;20177;-88
2023/11/16 03:05:12;;;;;;;1.70;1.33;;;;;;;-144.99;100.00;67352.69;5121863;28;20185;-88
2023/11/16 03:07:38;;;;;;;2.63;1.90;;;;;;;-144.99;100.00;67352.69;5122188;28;20201;-89
2023/11/16 03:10:07;;;;;;;7.83;2.97;;;;;;;-144.99;100.00;67352.69;5140053;28;20197;-87
2023/11/16 03:12:34;;;;;;;12.37;1.90;;;;;;;-144.99;100.00;67352.69;5104486;28;20181;-89
2023/11/16 03:14:59;;;;;;;2.53;2.33;;;;;;;-144.99;100.00;67352.69;5126959;28;20177;-87
2023/11/16 03:17:26;;;;;;;2.23;1.60;;;;;;;-144.99;100.00;67352.69;5128439;28;20185;-87
2023/11/16 03:19:52;;;;;;;3.70;2.13;;;;;;;-144.99;100.00;67352.69;5128136;28;20197;-86
2023/11/16 03:22:17;;;;;;;13.77;1.87;;;;;;;-144.99;100.00;67352.69;5103192;28;20199;-87
2023/11/16 03:24:43;;;;;;;1.50;1.40;;;;;;;-144.99;100.00;67352.69;5111761;28;20189;-86
2023/11/16 03:27:09;;;;;;;2.93;2.13;;;;;;;-144.99;100.00;67352.69;5110436;28;20728;-88
2023/11/16 03:29:38;;;;;;;2.80;1.53;;;;;;;-144.99;100.00;67352.69;5110558;28;20173;-87
2023/11/16 03:32:09;;;;;;;0.97;0.97;;;;;;;-144.99;100.00;67352.69;5110818;28;20222;-88
2023/11/16 03:34:35;;;;;;;2.37;2.07;;;;;;;-144.99;100.00;67352.69;5103086;28;20250;-87
2023/11/16 03:37:02;;;;;;;6.93;1.97;;;;;;;-144.99;100.00;67352.69;5127177;28;20260;-88
2023/11/16 03:39:28;;;;;;;4.00;2.00;;;;;;;-144.99;100.00;67352.69;5121309;28;20173;-88
2023/11/16 03:41:53;;;;;;;5.07;1.97;;;;;;;-144.99;100.00;67352.69;5086223;28;20623;-87
2023/11/16 03:44:19;;;;;;;2.60;2.17;;;;;;;-144.99;100.00;67352.69;5094086;28;20174;-86
2023/11/16 03:46:44;;;;;;;8.27;2.57;;;;;;;-144.99;100.00;67352.69;5103666;28;20187;-87
2023/11/16 03:49:09;;;;;;;3.67;2.00;;;;;;;-144.99;100.00;67352.69;5099434;28;20180;-87
2023/11/16 03:51:35;;;;;;;4.90;2.20;;;;;;;-144.99;100.00;67352.69;5105399;28;20193;-87
2023/11/16 03:54:00;;;;;;;6.50;2.20;;;;;;;-144.99;100.00;67352.69;5100071;28;20173;-87
2023/11/16 03:56:25;;;;;;;4.97;2.40;;;;;;;-144.99;100.00;67352.69;5104082;28;20234;-87
2023/11/16 03:58:51;;;;;;;4.80;2.67;;;;;;;-144.99;100.00;67352.69;5120456;28;20188;-87
2023/11/16 04:01:17;;;;;;;4.30;2.43;;;;;;;-144.99;100.00;67352.69;5101864;28;20220;-87
2023/11/16 04:03:44;;;;;;;7.90;2.70;;;;;;;-144.99;100.00;67352.69;5103403;28;20248;-86
2023/11/16 04:06:24;;;;;;;3.63;2.37;;;;;;;-144.99;100.00;67352.69;5093117;28;20543;-85
2023/11/16 04:08:51;;;;;;;3.77;2.40;;;;;;;-144.99;100.00;67352.69;5121612;28;20241;-86
2023/11/16 04:11:17;;;;;;;6.07;3.27;;;;;;;-144.99;100.00;67352.69;5121405;28;20568;-87
2023/11/16 04:13:43;;;;;;;2.30;2.10;;;;;;;-144.99;100.00;67352.69;5111323;28;20210;-86
2023/11/16 04:16:23;;;;;;;3.37;2.20;;;;;;;-144.99;100.00;67352.69;5129391;28;20181;-86
2023/11/16 04:18:51;;;;;;;6.47;2.07;;;;;;;-144.99;100.00;67352.69;5121672;28;20207;-87
2023/11/16 04:21:18;;;;;;;11.53;2.30;;;;;;;-144.99;100.00;67352.69;5111901;28;20217;-85
2023/11/16 04:23:57;;;;;;;7.77;3.97;;;;;;;-144.99;100.00;67352.69;5110626;28;20189;-87
2023/11/16 04:26:27;;;;;;;4.07;3.33;;;;;;;-144.99;100.00;67352.69;5128182;28;20184;-86
2023/11/16 04:28:52;;;;;;;4.80;2.90;;;;;;;-144.99;100.00;67352.69;5110494;28;20208;-86
2023/11/16 04:31:18;;;;;;;8.13;2.83;;;;;;;-144.99;100.00;67352.69;5128927;28;20193;-87
2023/11/16 04:33:44;;;;;;;12.63;3.33;;;;;;;-144.99;100.00;67352.69;5119533;28;20192;-86
2023/11/16 04:36:14;;;;;;;4.40;2.63;;;;;;;-144.99;100.00;67352.69;5093494;28;20189;-87
2023/11/16 04:38:40;;;;;;;3.13;2.83;;;;;;;-144.99;100.00;67352.69;5089505;28;20182;-87
2023/11/16 04:41:06;;;;;;;4.63;2.67;;;;;;;-144.99;100.00;67352.69;5107017;28;20328;-87
2023/11/16 04:43:33;;;;;;;3.87;2.30;;;;;;;-144.99;100.00;67352.69;5089753;28;20181;-87
2023/11/16 04:45:59;;;;;;;2.43;1.83;;;;;;;-144.99;100.00;67352.69;5088300;28;20192;-88
2023/11/16 04:48:24;;;;;;;3.67;2.53;;;;;;;-144.99;100.00;67352.69;5084474;28;20190;-85
2023/11/16 04:50:50;;;;;;;1.47;1.17;;;;;;;-144.99;100.00;67352.69;5098919;28;20201;-87
2023/11/16 04:53:15;;;;;;;3.50;2.20;;;;;;;-144.99;100.00;67352.69;5098725;28;20178;-87
2023/11/16 04:55:40;;;;;;;2.73;2.13;;;;;;;-144.99;100.00;67352.69;5088840;28;20180;-87
2023/11/16 04:58:06;;;;;;;2.63;1.40;;;;;;;-144.99;100.00;67352.69;5105996;28;20191;-89
2023/11/16 05:00:32;;;;;;;1.33;1.10;;;;;;;-144.99;100.00;67352.69;5088993;28;20214;-87
2023/11/16 05:02:57;;;;;;;6.07;2.90;;;;;;;-144.99;100.00;67352.69;5106600;28;20253;-86
2023/11/16 05:05:23;;;;;;;2.17;1.60;;;;;;;-144.99;100.00;67352.69;5106696;28;20227;-87
2023/11/16 05:07:48;;;;;;;7.67;1.80;;;;;;;-144.99;100.00;67352.69;5086542;28;20174;-87
2023/11/16 05:10:16;;;;;;;2.80;2.30;;;;;;;-144.99;100.00;67352.69;5097930;28;20227;-87
2023/11/16 05:12:41;;;;;;;4.03;1.67;;;;;;;-144.99;100.00;67352.69;5106409;28;20177;-87
2023/11/16 05:15:08;;;;;;;9.03;1.83;;;;;;;-144.99;100.00;67352.69;5105962;28;20302;-87
2023/11/16 05:17:34;;;;;;;7.97;1.80;;;;;;;-144.99;100.00;67352.69;5088107;28;20181;-86
2023/11/16 05:19:59;;;;;;;2.93;1.30;;;;;;;-144.99;100.00;67352.69;5087899;28;20201;-87
2023/11/16 05:22:24;;;;;;;1.43;1.33;;;;;;;-144.99;100.00;67352.69;5106872;28;20177;-87
2023/11/16 05:24:50;;;;;;;1.37;1.27;;;;;;;-144.99;100.00;67352.69;5088328;28;20185;-87
2023/11/16 05:27:15;;;;;;;1.37;1.27;;;;;;;-144.99;100.00;67352.69;5088313;28;20205;-87
2023/11/16 05:29:40;;;;;;;4.97;1.53;;;;;;;-144.99;100.00;67352.69;5087419;28;20634;-86
2023/11/16 05:32:06;;;;;;;1.90;1.20;;;;;;;-144.99;100.00;67352.69;5079251;28;20196;-86
2023/11/16 05:34:32;;;;;;;1.60;1.50;;;;;;;-144.99;100.00;67352.69;5088021;28;20632;-87
2023/11/16 05:36:57;;;;;;;6.47;2.00;;;;;;;-144.99;100.00;67352.69;5105396;28;20174;-87
2023/11/16 05:39:22;;;;;;;2.97;1.30;;;;;;;-144.99;100.00;67352.69;5088039;28;20444;-86
2023/11/16 05:41:49;;;;;;;1.40;1.30;;;;;;;-144.99;100.00;67352.69;5104556;28;20216;-85
2023/11/16 05:44:14;;;;;;;11.80;1.97;;;;;;;-144.99;100.00;67352.69;5082596;28;20224;-87
2023/11/16 05:46:39;;;;;;;5.97;2.27;;;;;;;-144.99;100.00;67352.69;5083904;28;20178;-86
2023/11/16 05:49:06;;;;;;;2.70;1.60;;;;;;;-144.99;100.00;67352.69;5110857;28;20174;-87
2023/11/16 05:51:39;;;;;;;3.93;2.33;;;;;;;-144.99;100.00;67352.69;5089765;28;20217;-87
2023/11/16 05:54:07;;;;;;;3.73;2.57;;;;;;;-144.99;100.00;67352.69;5106637;28;20201;-86
2023/11/16 05:56:40;;;;;;;2.50;1.53;;;;;;;-144.99;100.00;67352.69;5088179;28;20215;-86
2023/11/16 05:59:08;;;;;;;5.93;1.63;;;;;;;-144.99;100.00;67352.69;5088490;28;20253;-86
2023/11/16 06:01:33;;;;;;;3.90;2.10;;;;;;;-144.99;100.00;67352.69;5087431;28;20214;-86
2023/11/16 06:03:59;;;;;;;1.87;1.67;;;;;;;-144.99;100.00;67352.69;5105293;28;20178;-86
2023/11/16 06:06:24;;;;;;;3.27;2.07;;;;;;;-144.99;100.00;67352.69;5089034;28;20196;-86
2023/11/16 06:08:49;;;;;;;3.00;2.00;;;;;;;-144.99;100.00;67352.69;5088617;28;20202;-87
2023/11/16 06:11:15;;;;;;;3.47;2.20;;;;;;;-144.99;100.00;67352.69;5088400;28;20193;-86
2023/11/16 06:13:40;;;;;;;6.00;2.23;;;;;;;-144.99;100.00;67352.69;5088407;28;20188;-87
2023/11/16 06:16:06;;;;;;;2.40;2.13;;;;;;;-144.99;100.00;67352.69;5090678;28;20189;-86
2023/11/16 06:18:31;;;;;;;3.93;2.80;;;;;;;-144.99;100.00;67352.69;5126524;28;20185;-87
2023/11/16 06:20:57;;;;;;;1.23;1.10;;;;;;;-144.99;100.00;67352.69;5126810;28;20201;-88
2023/11/16 06:23:22;;;;;;;3.57;1.77;;;;;;;-144.99;100.00;67352.69;5104351;28;20185;-86
2023/11/16 06:25:48;;;;;;;6.00;1.53;;;;;;;-144.99;100.00;67352.69;5111436;28;20185;-87
2023/11/16 06:28:13;;;;;;;2.63;1.00;;;;;;;-144.99;100.00;67352.69;5130964;28;20197;-86
2023/11/16 06:30:39;;;;;;;1.17;0.67;;;;;;;-144.99;100.00;67352.69;5122710;28;20285;-87
2023/11/16 06:33:04;;;;;;;0.30;0.30;;;;;;;-144.99;100.00;67352.69;5101666;28;20185;-87
2023/11/16 06:35:30;;;;;;;0.97;0.97;;;;;;;-144.99;100.00;67352.69;5129154;28;20191;-87
2023/11/16 06:37:55;;;;;;;0.93;0.80;;;;;;;-144.99;100.00;67352.69;5129904;28;20237;-86
2023/11/16 06:40:21;;;;;;;1.90;0.60;;;;;;;-144.99;100.00;67352.69;5111521;28;20204;-87
2023/11/16 06:42:47;;;;;;;2.97;1.00;;;;;;;-144.99;100.00;67352.69;5111359;28;20173;-86
2023/11/16 06:45:12;;;;;;;1.50;1.30;;;;;;;-144.99;100.00;67352.69;5111057;28;20206;-87
2023/11/16 06:47:37;;;;;;;4.80;0.80;;;;;;;-144.99;100.00;67352.69;5128636;28;20605;-86
2023/11/16 06:50:03;;;;;;;2.20;1.53;;;;;;;-144.99;100.00;67352.69;5129134;28;20252;-87
2023/11/16 06:52:29;;;;;;;0.30;0.30;;;;;;;-144.99;100.00;67352.69;5130015;28;20177;-87
2023/11/16 06:54:54;;;;;;;2.63;0.43;;;;;;;-144.99;100.00;67352.69;5111371;28;20188;-86
2023/11/16 06:57:22;;;;;;;0.13;0.13;;;;;;;-144.99;100.00;67352.69;5111364;28;20196;-87
2023/11/16 06:59:49;;;;;;;0.20;0.20;;;;;;;-144.99;100.00;67352.69;5109993;28;20204;-87
2023/11/16 07:02:14;;;;;;;0.67;0.40;;;;;;;-144.99;100.00;67352.69;5102942;28;20503;-86
2023/11/16 07:04:41;;;;;;;0.47;0.30;;;;;;;-144.99;100.00;67352.69;5129438;28;20184;-87
2023/11/16 07:07:06;;;;;;;0.10;0.10;;;;;;;-144.99;100.00;67352.69;5111885;28;20201;-87
2023/11/16 07:09:31;;;;;;;10.70;0.40;;;;;;;-144.99;100.00;67352.69;5130573;28;20185;-86
2023/11/16 07:11:59;;;;;;;0.00;0.00;;;;;;;-144.99;100.00;67352.69;5130840;28;20197;-85
2023/11/16 07:14:24;;;;;;;0.20;0.20;;;;;;;-144.99;100.00;67352.69;5108833;28;20174;-86
2023/11/16 07:16:50;;;;;;;4.17;0.40;;;;;;;-144.99;100.00;67352.69;5110516;28;20201;-87
2023/11/16 07:19:16;;;;;;;4.50;0.47;;;;;;;-144.99;100.00;67352.69;5091738;28;20178;-87
2023/11/16 07:21:42;;;;;;;0.50;0.30;;;;;;;-144.99;100.00;67352.69;5092289;28;20249;-87
2023/11/16 07:24:07;;;;;;;0.00;0.00;;;;;;;-144.99;100.00;67352.69;5092945;28;20189;-86
2023/11/16 07:26:33;;;;;;;0.00;0.00;;;;;;;-144.99;100.00;67352.69;5093220;28;20199;-86
2023/11/16 07:28:59;;;;;;;0.00;0.00;;;;;;;-144.99;100.00;67352.69;5091097;28;20185;-86
2023/11/16 07:31:27;;;;;;;0.47;0.47;;;;;;;-144.99;100.00;67352.69;5090900;28;20216;-87
2023/11/16 07:33:54;;;;;;;0.53;0.53;;;;;;;-144.99;100.00;67352.69;5089084;28;20225;-88
2023/11/16 07:36:26;;;;;;;0.20;0.20;;;;;;;-144.99;100.00;67352.69;5092414;28;20186;-86
2023/11/16 07:38:56;;;;;;;5.70;0.37;;;;;;;-144.99;100.00;67352.69;5092558;28;20188;-86
2023/11/16 07:41:21;;;;;;;0.00;0.00;;;;;;;-144.99;100.00;67352.69;5108419;28;20743;-87
2023/11/16 07:43:47;;;;;;;0.57;0.57;;;;;;;-144.99;100.00;67352.69;5091029;28;20181;-87
2023/11/16 07:46:13;;;;;;;0.40;0.40;;;;;;;-144.99;100.00;67352.69;5107758;28;20186;-87
2023/11/16 07:48:39;;;;;;;2.17;0.30;;;;;;;-144.99;100.00;67352.69;5087233;28;20178;-86
2023/11/16 07:51:08;;;;;;;4.03;0.33;;;;;;;-144.99;100.00;67352.69;5088227;28;20186;-86
2023/11/16 07:53:34;;;;;;;0.10;0.10;;;;;;;-144.99;100.00;67352.69;5103162;28;20184;-87
2023/11/16 07:56:05;;;;;;;0.20;0.20;;;;;;;-144.99;100.00;67352.69;5096157;28;20174;-86
2023/11/16 07:58:34;;;;;;;0.10;0.10;;;;;;;-144.99;100.00;67352.69;5088286;28;20188;-86
2023/11/16 08:01:11;;;;;;;0.00;0.00;;;;;;;-144.99;100.00;67352.69;5096530;22;20721;-87
2023/11/16 08:03:44;;;;;;;0.83;0.83;;;;;;;-144.99;100.00;67352.69;5034482;28;20266;-87
2023/11/16 08:06:13;;;;;;;0.10;0.10;;;;;;;-144.99;100.00;67352.69;5032005;28;20821;-87
2023/11/16 08:08:42;;;;;;;0.00;0.00;;;;;;;-144.99;100.00;67352.69;5047022;28;20277;-86
2023/11/16 08:11:11;;;;;;;0.30;0.27;;;;;;;-144.99;100.00;67352.69;5036427;28;20196;-86
2023/11/16 08:13:41;;;;;;;0.30;0.30;;;;;;;-144.99;100.00;67352.69;5033745;28;20685;-85
2023/11/16 08:16:09;;;;;;;0.30;0.10;;;;;;;-144.99;100.00;67352.69;5023477;28;20268;-86
2023/11/16 08:18:37;;;;;;;2.00;0.40;;;;;;;-144.99;100.00;67352.69;5015243;28;20176;-86
2023/11/16 08:21:06;;;;;;;0.83;0.47;;;;;;;-144.99;100.00;67352.69;5031805;28;20724;-86
2023/11/16 08:23:34;;;;;;;0.03;0.00;;;;;;;-144.99;100.00;67352.69;5014156;28;20657;-86
2023/11/16 08:26:00;;;;;;;0.30;0.30;;;;;;;-144.99;100.00;67352.69;5015750;28;20204;-86
2023/11/16 08:28:28;;;;;;;3.50;0.63;;;;;;;-144.99;100.00;67352.69;5015350;28;20214;-87
2023/11/16 08:30:53;;;;;;;0.43;0.30;;;;;;;-144.99;100.00;67352.69;5017534;28;20204;-87
2023/11/16 08:33:20;;;;;;;0.00;0.00;;;;;;;-144.99;100.00;67352.69;5032729;28;20262;-87
2023/11/16 08:35:46;;;;;;;0.10;0.10;;;;;;;-144.99;100.00;67352.69;5014702;28;20191;-87
2023/11/16 08:38:14;;;;;;;2.10;0.17;;;;;;;-144.99;100.00;67352.69;5031089;28;20696;-86
2023/11/16 08:40:42;;;;;;;0.00;0.00;;;;;;;-144.99;100.00;67352.69;5032462;28;20199;-87
2023/11/16 08:43:11;;;;;;;0.00;0.00;;;;;;;-144.99;100.00;67352.69;5020851;28;20645;-86
2023/11/16 08:45:37;;;;;;;0.10;0.10;;;;;;;-144.99;100.00;67352.69;5011245;28;20271;-87
2023/11/16 08:48:03;;;;;;;0.93;0.20;;;;;;;-144.99;100.00;67352.69;5032052;28;20195;-86
2023/11/16 08:50:29;;;;;;;3.00;0.10;;;;;;;-144.99;100.00;67352.69;5014630;28;20205;-86
2023/11/16 08:52:57;;;;;;;12.73;0.63;;;;;;;-144.99;100.00;67352.69;5031947;28;20210;-86
2023/11/16 08:55:22;;;;;;;0.57;0.57;;;;;;;-144.99;100.00;67352.69;5022515;28;20180;-87
2023/11/16 08:57:50;;;;;;;10.90;0.40;;;;;;;-144.99;100.00;67352.69;5023964;28;20190;-87
2023/11/16 09:00:30;;;;;;;3.80;0.30;;;;;;;-144.99;100.00;67352.69;5022787;28;20187;-88
2023/11/16 09:03:04;;;;;;;0.20;0.20;;;;;;;-144.99;100.00;67352.69;5014258;28;20191;-87
2023/11/16 09:05:39;;;;;;;0.00;0.00;;;;;;;-144.99;100.00;67352.69;5022397;28;20190;-86
2023/11/16 09:08:05;;;;;;;0.00;0.00;;;;;;;-144.99;100.00;67352.69;5030829;28;20183;-87
2023/11/16 09:10:34;;;;;;;0.00;0.00;;;;;;;-144.99;100.00;67352.69;5022719;28;20210;-86
2023/11/16 09:13:00;;;;;;;0.00;0.00;;;;;;;-144.99;100.00;67352.69;5031557;28;20269;-87
2023/11/16 09:15:26;;;;;;;0.20;0.03;;;;;;;-144.99;100.00;67352.69;5016163;28;20191;-87
2023/11/16 09:17:52;;;;;;;1.07;0.43;;;;;;;-144.99;100.00;67352.69;5031870;28;20194;-87
2023/11/16 09:20:18;;;;;;;0.03;0.03;;;;;;;-144.99;100.00;67352.69;5031851;28;20198;-88
2023/11/16 09:22:49;;;;;;;5.53;0.37;;;;;;;-144.99;100.00;67352.69;5031856;28;20218;-87
2023/11/16 09:25:18;;;;;;;2.23;0.57;;;;;;;-144.99;100.00;67352.69;5031911;28;20183;-88
2023/11/16 09:27:52;;;;;;;0.40;0.30;;;;;;;-144.99;100.00;67352.69;5013722;28;20198;-87
2023/11/16 09:30:18;;;;;;;3.63;0.10;;;;;;;-144.99;100.00;67352.69;5006524;28;20188;-87
2023/11/16 09:32:44;;;;;;;0.13;0.13;;;;;;;-144.99;100.00;67352.69;5030773;28;20198;-87
2023/11/16 09:35:14;;;;;;;0.00;0.00;;;;;;;-144.99;100.00;67352.69;5023676;28;20266;-86
2023/11/16 09:37:40;;;;;;;0.40;0.30;;;;;;;-144.99;100.00;67352.69;5013774;28;20187;-87
2023/11/16 09:40:08;;;;;;;0.73;0.07;;;;;;;-144.99;100.00;67352.69;5023248;28;20176;-87
2023/11/16 09:42:35;;;;;;;1.40;0.60;;;;;;;-144.99;100.00;67352.69;5013973;28;20539;-87
2023/11/16 09:45:03;;;;;;;0.10;0.10;;;;;;;-144.99;100.00;67352.69;5022140;28;20195;-87
2023/11/16 09:47:31;;;;;;;0.00;0.00;;;;;;;-144.99;100.00;67352.69;5022270;28;20563;-87
2023/11/16 09:49:57;;;;;;;0.10;0.10;;;;;;;-144.99;100.00;67352.69;5031708;28;20264;-87
2023/11/16 09:52:33;;;;;;;0.87;0.23;;;;;;;-144.99;100.00;67352.69;5021992;28;20288;-86
2023/11/16 09:55:01;;;;;;;0.50;0.47;;;;;;;-144.99;100.00;67352.69;5031390;28;20176;-87
2023/11/16 09:57:33;;;;;;;0.20;0.20;;;;;;;-144.99;100.00;67352.69;5034664;28;20661;-87
2023/11/16 10:00:00;;;;;;;0.00;0.00;;;;;;;-144.99;100.00;67352.69;5034219;28;20558;-87
2023/11/16 10:02:26;;;;;;;0.20;0.20;;;;;;;-144.99;100.00;67352.69;5025669;28;20651;-87
2023/11/16 10:04:53;;;;;;;4.70;0.60;;;;;;;-144.99;100.00;67352.69;5035305;28;20279;-87
2023/11/16 10:07:25;;;;;;;0.00;0.00;;;;;;;-144.99;100.00;67352.69;5025345;28;20249;-86
2023/11/16 10:09:53;;;;;;;0.10;0.10;;;;;;;-144.99;100.00;67352.69;5027110;28;20186;-87
2023/11/16 10:12:20;;;;;;;0.00;0.00;;;;;;;-144.99;100.00;67352.69;5033789;28;20215;-87
2023/11/16 10:14:51;;;;;;;0.00;0.00;;;;;;;-144.99;100.00;67352.69;5026971;28;20168;-87
2023/11/16 10:17:25;;;;;;;0.17;0.10;;;;;;;-144.99;100.00;67352.69;5009859;28;20233;-86
2023/11/16 10:19:53;;;;;;;0.00;0.00;;;;;;;-144.99;100.00;67352.69;5035159;28;20195;-87
2023/11/16 10:22:18;;;;;;;1.27;0.30;;;;;;;-144.99;100.00;67352.69;5035075;28;20293;-87
2023/11/16 10:24:44;;;;;;;18.33;1.60;;;;;;;-144.99;100.00;67352.69;5034965;28;20271;-87
2023/11/16 10:27:11;;;;;;;0.10;0.10;;;;;;;-144.99;100.00;67352.69;5034836;28;20543;-86
2023/11/16 10:29:39;;;;;;;0.00;0.00;;;;;;;-144.99;100.00;67352.69;5026889;28;20176;-87
2023/11/16 10:32:06;;;;;;;0.00;0.00;;;;;;;-144.99;100.00;67352.69;5016946;28;20210;-87
2023/11/16 10:34:31;;;;;;;0.00;0.00;;;;;;;-144.99;100.00;67352.69;5017177;28;20176;-87
2023/11/16 10:36:58;;;;;;;2.30;0.63;;;;;;;-144.99;100.00;67352.69;5016877;28;20601;-87
2023/11/16 10:39:25;;;;;;;0.03;0.03;;;;;;;-144.99;100.00;67352.69;5029783;28;20184;-87
2023/11/16 10:41:50;;;;;;;0.00;0.00;;;;;;;-144.99;100.00;67352.69;5013471;28;20207;-87
2023/11/16 10:44:17;;;;;;;0.10;0.10;;;;;;;-144.99;100.00;67352.69;5026450;28;20600;-87
2023/11/16 10:46:43;;;;;;;1.80;0.60;;;;;;;-144.99;100.00;67352.69;5016582;28;20180;-88
2023/11/16 10:49:09;;;;;;;0.00;0.00;;;;;;;-144.99;100.00;67352.69;5016775;28;20238;-88
2023/11/16 10:51:36;;;;;;;0.00;0.00;;;;;;;-144.99;100.00;67352.69;5026466;28;20190;-87
2023/11/16 10:54:04;;;;;;;0.00;0.00;;;;;;;-144.99;100.00;67352.69;5026250;28;20171;-87
2023/11/16 10:56:31;;;;;;;0.00;0.00;;;;;;;-144.99;100.00;67352.69;5016397;28;20184;-87
2023/11/16 10:59:05;;;;;;;0.00;0.00;;;;;;;-144.99;100.00;67352.69;5015645;28;20179;-86
2023/11/16 11:01:34;;;;;;;1.57;0.17;;;;;;;-144.99;100.00;67352.69;5012784;28;20633;-88
2023/11/16 11:04:01;;;;;;;0.00;0.00;;;;;;;-144.99;100.00;67352.69;5033923;28;20557;-88
2023/11/16 11:06:28;;;;;;;0.20;0.20;;;;;;;-144.99;100.00;67352.69;5013835;28;20176;-88
2023/11/16 11:08:57;;;;;;;0.00;0.00;;;;;;;-144.99;100.00;67352.69;5019223;28;20188;-87